sensor_id;sensor_type;location;lat;lon;timestamp;temperature;humidity
42365;DHT22;28498;54.400;18.566;2024-03-23T00:54:26;6.70;99.90
42365;DHT22;28498;54.400;18.566;2024-03-23T00:56:52;6.70;99.90
42365;DHT22;28498;54.400;18.566;2024-03-23T00:59:18;6.70;99.90
42365;DHT22;28498;54.400;18.566;2024-03-23T01:01:44;6.80;99.90
42365;DHT22;28498;54.400;18.566;2024-03-23T01:04:10;6.70;99.90
42365;DHT22;28498;54.400;18.566;2024-03-23T01:06:36;6.60;99.90
42365;DHT22;28498;54.400;18.566;2024-03-23T01:09:02;6.80;99.90
42365;DHT22;28498;54.400;18.566;2024-03-23T01:11:28;6.70;99.90
42365;DHT22;28498;54.400;18.566;2024-03-23T01:13:54;6.70;99.90
42365;DHT22;28498;54.400;18.566;2024-03-23T01:16:21;6.80;99.90
42365;DHT22;28498;54.400;18.566;2024-03-23T01:18:47;6.80;99.90
42365;DHT22;28498;54.400;18.566;2024-03-23T01:21:14;6.80;99.90
42365;DHT22;28498;54.400;18.566;2024-03-23T01:23:40;6.80;99.90
42365;DHT22;28498;54.400;18.566;2024-03-23T01:26:05;6.80;99.90
42365;DHT22;28498;54.400;18.566;2024-03-23T01:28:31;6.80;99.90
42365;DHT22;28498;54.400;18.566;2024-03-23T01:30:57;6.70;99.90
42365;DHT22;28498;54.400;18.566;2024-03-23T01:33:23;6.60;99.90
42365;DHT22;28498;54.400;18.566;2024-03-23T01:35:49;6.50;99.90
42365;DHT22;28498;54.400;18.566;2024-03-23T01:38:15;6.50;99.90
42365;DHT22;28498;54.400;18.566;2024-03-23T01:40:41;6.50;99.90
42365;DHT22;28498;54.400;18.566;2024-03-23T01:43:08;6.50;99.90
42365;DHT22;28498;54.400;18.566;2024-03-23T01:45:34;6.40;99.90
42365;DHT22;28498;54.400;18.566;2024-03-23T01:48:01;6.40;99.90
42365;DHT22;28498;54.400;18.566;2024-03-23T01:50:27;6.50;99.90
42365;DHT22;28498;54.400;18.566;2024-03-23T01:52:54;6.50;99.90
42365;DHT22;28498;54.400;18.566;2024-03-23T01:55:20;6.50;99.90
42365;DHT22;28498;54.400;18.566;2024-03-23T01:57:46;6.40;99.90
42365;DHT22;28498;54.400;18.566;2024-03-23T02:00:13;6.40;99.90
42365;DHT22;28498;54.400;18.566;2024-03-23T02:02:45;6.50;99.90
42365;DHT22;28498;54.400;18.566;2024-03-23T02:05:12;6.50;99.90
42365;DHT22;28498;54.400;18.566;2024-03-23T02:07:42;6.40;99.90
42365;DHT22;28498;54.400;18.566;2024-03-23T02:10:09;6.40;99.90
42365;DHT22;28498;54.400;18.566;2024-03-23T02:12:36;6.30;99.90
42365;DHT22;28498;54.400;18.566;2024-03-23T02:15:03;6.30;99.90
42365;DHT22;28498;54.400;18.566;2024-03-23T02:17:31;6.30;99.90
42365;DHT22;28498;54.400;18.566;2024-03-23T02:19:58;6.30;99.90
42365;DHT22;28498;54.400;18.566;2024-03-23T02:22:23;6.50;99.90
42365;DHT22;28498;54.400;18.566;2024-03-23T02:24:49;6.40;99.90
42365;DHT22;28498;54.400;18.566;2024-03-23T02:27:15;6.30;99.90
42365;DHT22;28498;54.400;18.566;2024-03-23T02:29:42;6.30;99.90
42365;DHT22;28498;54.400;18.566;2024-03-23T02:32:07;6.30;99.90
42365;DHT22;28498;54.400;18.566;2024-03-23T02:34:35;6.30;99.90
42365;DHT22;28498;54.400;18.566;2024-03-23T02:37:02;6.30;99.90
42365;DHT22;28498;54.400;18.566;2024-03-23T02:39:28;6.20;99.90
42365;DHT22;28498;54.400;18.566;2024-03-23T02:41:54;6.30;99.90
42365;DHT22;28498;54.400;18.566;2024-03-23T02:44:20;6.20;99.90
42365;DHT22;28498;54.400;18.566;2024-03-23T02:46:46;6.20;99.90
42365;DHT22;28498;54.400;18.566;2024-03-23T02:49:12;6.20;99.90
42365;DHT22;28498;54.400;18.566;2024-03-23T02:51:37;6.20;99.90
42365;DHT22;28498;54.400;18.566;2024-03-23T02:54:03;6.20;99.90
42365;DHT22;28498;54.400;18.566;2024-03-23T02:56:32;6.20;99.90
42365;DHT22;28498;54.400;18.566;2024-03-23T02:58:58;6.20;99.90
42365;DHT22;28498;54.400;18.566;2024-03-23T03:01:24;6.20;99.90
42365;DHT22;28498;54.400;18.566;2024-03-23T03:03:51;6.10;99.90
42365;DHT22;28498;54.400;18.566;2024-03-23T03:06:24;6.10;99.90
42365;DHT22;28498;54.400;18.566;2024-03-23T03:08:51;6.10;99.90
42365;DHT22;28498;54.400;18.566;2024-03-23T03:11:17;6.10;99.90
42365;DHT22;28498;54.400;18.566;2024-03-23T03:13:43;6.00;99.90
42365;DHT22;28498;54.400;18.566;2024-03-23T03:16:10;6.00;99.90
42365;DHT22;28498;54.400;18.566;2024-03-23T03:18:36;6.00;99.90
42365;DHT22;28498;54.400;18.566;2024-03-23T03:21:03;6.00;99.90
42365;DHT22;28498;54.400;18.566;2024-03-23T03:23:31;6.00;99.90
42365;DHT22;28498;54.400;18.566;2024-03-23T03:25:57;6.00;99.90
42365;DHT22;28498;54.400;18.566;2024-03-23T03:28:23;6.00;99.90
42365;DHT22;28498;54.400;18.566;2024-03-23T03:30:50;6.00;99.90
42365;DHT22;28498;54.400;18.566;2024-03-23T03:33:15;6.00;99.90
42365;DHT22;28498;54.400;18.566;2024-03-23T03:35:42;6.00;99.90
42365;DHT22;28498;54.400;18.566;2024-03-23T03:38:09;5.90;99.90
42365;DHT22;28498;54.400;18.566;2024-03-23T03:40:35;6.00;99.90
42365;DHT22;28498;54.400;18.566;2024-03-23T03:43:01;5.90;99.90
42365;DHT22;28498;54.400;18.566;2024-03-23T03:45:27;5.90;99.90
42365;DHT22;28498;54.400;18.566;2024-03-23T03:47:53;6.00;99.90
42365;DHT22;28498;54.400;18.566;2024-03-23T03:50:21;6.00;99.90
42365;DHT22;28498;54.400;18.566;2024-03-23T03:52:47;6.00;99.90
42365;DHT22;28498;54.400;18.566;2024-03-23T03:55:14;6.00;99.90
42365;DHT22;28498;54.400;18.566;2024-03-23T03:57:40;6.00;99.90
42365;DHT22;28498;54.400;18.566;2024-03-23T04:00:06;6.00;99.90
42365;DHT22;28498;54.400;18.566;2024-03-23T04:02:33;5.90;99.90
42365;DHT22;28498;54.400;18.566;2024-03-23T04:04:58;5.90;99.90
42365;DHT22;28498;54.400;18.566;2024-03-23T04:07:24;5.90;99.90
42365;DHT22;28498;54.400;18.566;2024-03-23T04:09:50;5.90;99.90
42365;DHT22;28498;54.400;18.566;2024-03-23T04:12:16;5.90;99.90
42365;DHT22;28498;54.400;18.566;2024-03-23T04:14:42;5.90;99.90
42365;DHT22;28498;54.400;18.566;2024-03-23T04:17:08;5.80;99.90
42365;DHT22;28498;54.400;18.566;2024-03-23T04:19:34;5.80;99.90
42365;DHT22;28498;54.400;18.566;2024-03-23T04:22:00;5.90;99.90
42365;DHT22;28498;54.400;18.566;2024-03-23T04:24:26;5.80;99.90
42365;DHT22;28498;54.400;18.566;2024-03-23T04:26:52;5.90;99.90
42365;DHT22;28498;54.400;18.566;2024-03-23T04:29:18;5.80;99.90
42365;DHT22;28498;54.400;18.566;2024-03-23T04:31:44;5.90;99.90
42365;DHT22;28498;54.400;18.566;2024-03-23T04:34:10;5.90;99.90
42365;DHT22;28498;54.400;18.566;2024-03-23T04:36:36;5.90;99.90
42365;DHT22;28498;54.400;18.566;2024-03-23T04:39:02;5.80;99.90
42365;DHT22;28498;54.400;18.566;2024-03-23T04:41:28;5.90;99.90
42365;DHT22;28498;54.400;18.566;2024-03-23T04:43:54;5.90;99.90
42365;DHT22;28498;54.400;18.566;2024-03-23T04:46:20;5.90;99.90
42365;DHT22;28498;54.400;18.566;2024-03-23T04:48:46;5.90;99.90
42365;DHT22;28498;54.400;18.566;2024-03-23T04:51:23;5.90;99.90
42365;DHT22;28498;54.400;18.566;2024-03-23T04:53:49;5.90;99.90
42365;DHT22;28498;54.400;18.566;2024-03-23T04:56:16;5.90;99.90
42365;DHT22;28498;54.400;18.566;2024-03-23T04:58:43;6.00;99.90
42365;DHT22;28498;54.400;18.566;2024-03-23T05:01:10;6.00;99.90
42365;DHT22;28498;54.400;18.566;2024-03-23T05:03:36;6.00;99.90
42365;DHT22;28498;54.400;18.566;2024-03-23T05:06:02;6.00;99.90
42365;DHT22;28498;54.400;18.566;2024-03-23T05:08:28;6.00;99.90
42365;DHT22;28498;54.400;18.566;2024-03-23T05:10:54;6.10;99.90
42365;DHT22;28498;54.400;18.566;2024-03-23T05:13:20;6.10;99.90
42365;DHT22;28498;54.400;18.566;2024-03-23T05:15:54;6.20;99.90
42365;DHT22;28498;54.400;18.566;2024-03-23T05:18:21;6.20;99.90
42365;DHT22;28498;54.400;18.566;2024-03-23T05:20:47;6.20;99.90
42365;DHT22;28498;54.400;18.566;2024-03-23T05:23:13;6.30;99.90
42365;DHT22;28498;54.400;18.566;2024-03-23T05:25:39;6.30;99.90
42365;DHT22;28498;54.400;18.566;2024-03-23T05:28:05;6.40;99.90
42365;DHT22;28498;54.400;18.566;2024-03-23T05:30:31;6.40;99.90
42365;DHT22;28498;54.400;18.566;2024-03-23T05:32:57;6.40;99.90
42365;DHT22;28498;54.400;18.566;2024-03-23T05:35:23;6.50;99.90
42365;DHT22;28498;54.400;18.566;2024-03-23T05:37:49;6.60;99.90
42365;DHT22;28498;54.400;18.566;2024-03-23T05:40:15;6.60;99.90
42365;DHT22;28498;54.400;18.566;2024-03-23T05:42:41;6.70;99.90
42365;DHT22;28498;54.400;18.566;2024-03-23T05:45:07;6.70;99.90
42365;DHT22;28498;54.400;18.566;2024-03-23T05:47:34;6.70;99.90
42365;DHT22;28498;54.400;18.566;2024-03-23T05:50:00;6.80;99.90
42365;DHT22;28498;54.400;18.566;2024-03-23T05:52:27;6.80;99.90
42365;DHT22;28498;54.400;18.566;2024-03-23T05:54:53;6.80;99.90
42365;DHT22;28498;54.400;18.566;2024-03-23T05:57:19;6.90;99.90
42365;DHT22;28498;54.400;18.566;2024-03-23T05:59:45;6.80;99.90
42365;DHT22;28498;54.400;18.566;2024-03-23T06:02:11;6.80;99.90
42365;DHT22;28498;54.400;18.566;2024-03-23T06:04:37;6.80;99.90
42365;DHT22;28498;54.400;18.566;2024-03-23T06:07:04;6.90;99.90
42365;DHT22;28498;54.400;18.566;2024-03-23T06:09:32;6.90;99.90
42365;DHT22;28498;54.400;18.566;2024-03-23T06:11:58;6.90;99.90
42365;DHT22;28498;54.400;18.566;2024-03-23T06:14:24;7.00;99.90
42365;DHT22;28498;54.400;18.566;2024-03-23T06:16:50;7.00;99.90
42365;DHT22;28498;54.400;18.566;2024-03-23T06:19:16;7.00;99.90
42365;DHT22;28498;54.400;18.566;2024-03-23T06:21:45;7.00;99.90
42365;DHT22;28498;54.400;18.566;2024-03-23T06:24:11;7.00;99.90
42365;DHT22;28498;54.400;18.566;2024-03-23T06:26:38;7.00;99.90
42365;DHT22;28498;54.400;18.566;2024-03-23T06:29:04;7.00;99.90
42365;DHT22;28498;54.400;18.566;2024-03-23T06:31:31;7.00;99.90
42365;DHT22;28498;54.400;18.566;2024-03-23T06:33:57;7.10;99.90
42365;DHT22;28498;54.400;18.566;2024-03-23T06:36:23;7.10;99.90
42365;DHT22;28498;54.400;18.566;2024-03-23T06:38:49;7.20;99.90
42365;DHT22;28498;54.400;18.566;2024-03-23T06:41:15;7.40;99.90
42365;DHT22;28498;54.400;18.566;2024-03-23T06:43:41;7.30;99.90
42365;DHT22;28498;54.400;18.566;2024-03-23T06:46:07;7.30;99.90
42365;DHT22;28498;54.400;18.566;2024-03-23T06:48:33;7.40;99.90
42365;DHT22;28498;54.400;18.566;2024-03-23T06:50:59;7.40;99.90
42365;DHT22;28498;54.400;18.566;2024-03-23T06:53:25;7.30;99.90
42365;DHT22;28498;54.400;18.566;2024-03-23T06:55:52;7.30;99.90
42365;DHT22;28498;54.400;18.566;2024-03-23T06:58:23;7.20;99.90
42365;DHT22;28498;54.400;18.566;2024-03-23T07:00:49;7.30;99.90
42365;DHT22;28498;54.400;18.566;2024-03-23T07:03:18;7.30;99.90
42365;DHT22;28498;54.400;18.566;2024-03-23T07:05:44;7.40;99.90
42365;DHT22;28498;54.400;18.566;2024-03-23T07:08:12;7.40;99.90
42365;DHT22;28498;54.400;18.566;2024-03-23T07:10:41;7.50;99.90
42365;DHT22;28498;54.400;18.566;2024-03-23T07:13:07;7.20;99.90
42365;DHT22;28498;54.400;18.566;2024-03-23T07:15:33;7.30;99.90
42365;DHT22;28498;54.400;18.566;2024-03-23T07:17:59;7.30;99.90
42365;DHT22;28498;54.400;18.566;2024-03-23T07:20:25;7.40;99.90
42365;DHT22;28498;54.400;18.566;2024-03-23T07:22:52;7.50;99.90
42365;DHT22;28498;54.400;18.566;2024-03-23T07:25:18;7.50;99.90
42365;DHT22;28498;54.400;18.566;2024-03-23T07:27:43;7.60;99.90
42365;DHT22;28498;54.400;18.566;2024-03-23T07:30:10;7.80;99.90
42365;DHT22;28498;54.400;18.566;2024-03-23T07:32:36;7.90;99.90
42365;DHT22;28498;54.400;18.566;2024-03-23T07:35:02;8.00;99.90
42365;DHT22;28498;54.400;18.566;2024-03-23T07:37:28;8.10;99.90
42365;DHT22;28498;54.400;18.566;2024-03-23T07:39:54;8.20;99.90
42365;DHT22;28498;54.400;18.566;2024-03-23T07:42:20;8.20;99.90
42365;DHT22;28498;54.400;18.566;2024-03-23T07:44:46;8.00;99.90
42365;DHT22;28498;54.400;18.566;2024-03-23T07:47:12;8.00;99.90
42365;DHT22;28498;54.400;18.566;2024-03-23T07:49:38;7.90;99.90
42365;DHT22;28498;54.400;18.566;2024-03-23T07:52:06;7.80;99.90
42365;DHT22;28498;54.400;18.566;2024-03-23T07:54:31;8.00;99.90
42365;DHT22;28498;54.400;18.566;2024-03-23T07:56:59;7.80;99.90
42365;DHT22;28498;54.400;18.566;2024-03-23T07:59:25;7.80;99.90
42365;DHT22;28498;54.400;18.566;2024-03-23T08:01:51;7.80;99.90
42365;DHT22;28498;54.400;18.566;2024-03-23T08:04:17;7.80;99.90
42365;DHT22;28498;54.400;18.566;2024-03-23T08:06:43;7.90;99.90
42365;DHT22;28498;54.400;18.566;2024-03-23T08:09:08;8.00;99.90
42365;DHT22;28498;54.400;18.566;2024-03-23T08:11:34;8.00;99.90
42365;DHT22;28498;54.400;18.566;2024-03-23T08:14:00;7.90;99.90
42365;DHT22;28498;54.400;18.566;2024-03-23T08:16:27;8.10;99.90
42365;DHT22;28498;54.400;18.566;2024-03-23T08:18:54;8.20;99.90
42365;DHT22;28498;54.400;18.566;2024-03-23T08:21:22;8.20;99.90
42365;DHT22;28498;54.400;18.566;2024-03-23T08:23:48;8.10;99.90
42365;DHT22;28498;54.400;18.566;2024-03-23T08:26:16;8.20;99.90
42365;DHT22;28498;54.400;18.566;2024-03-23T08:28:42;8.40;99.90
42365;DHT22;28498;54.400;18.566;2024-03-23T08:31:09;8.20;99.90
42365;DHT22;28498;54.400;18.566;2024-03-23T08:33:36;8.10;99.90
42365;DHT22;28498;54.400;18.566;2024-03-23T08:36:07;8.20;99.90
42365;DHT22;28498;54.400;18.566;2024-03-23T08:38:33;8.40;99.90
42365;DHT22;28498;54.400;18.566;2024-03-23T08:41:03;8.20;99.90
42365;DHT22;28498;54.400;18.566;2024-03-23T08:43:32;8.30;99.90
42365;DHT22;28498;54.400;18.566;2024-03-23T08:51:07;8.50;99.90
42365;DHT22;28498;54.400;18.566;2024-03-23T08:53:35;8.80;99.90
42365;DHT22;28498;54.400;18.566;2024-03-23T08:56:02;9.10;99.90
42365;DHT22;28498;54.400;18.566;2024-03-23T08:58:29;8.80;99.90
42365;DHT22;28498;54.400;18.566;2024-03-23T09:00:56;9.00;99.90
42365;DHT22;28498;54.400;18.566;2024-03-23T09:03:23;9.10;99.90
42365;DHT22;28498;54.400;18.566;2024-03-23T09:05:50;9.20;99.90
42365;DHT22;28498;54.400;18.566;2024-03-23T09:12:04;8.90;99.90
42365;DHT22;28498;54.400;18.566;2024-03-23T09:14:30;8.50;99.90
42365;DHT22;28498;54.400;18.566;2024-03-23T09:16:56;8.50;99.90
42365;DHT22;28498;54.400;18.566;2024-03-23T09:19:22;9.00;99.90
42365;DHT22;28498;54.400;18.566;2024-03-23T09:21:49;9.20;99.90
42365;DHT22;28498;54.400;18.566;2024-03-23T09:24:15;8.80;99.90
42365;DHT22;28498;54.400;18.566;2024-03-23T09:26:41;9.10;99.90
42365;DHT22;28498;54.400;18.566;2024-03-23T09:29:07;9.40;99.90
42365;DHT22;28498;54.400;18.566;2024-03-23T09:31:33;9.70;99.90
42365;DHT22;28498;54.400;18.566;2024-03-23T09:33:59;9.70;99.90
42365;DHT22;28498;54.400;18.566;2024-03-23T09:36:25;9.20;99.90
42365;DHT22;28498;54.400;18.566;2024-03-23T09:38:51;9.20;99.90
42365;DHT22;28498;54.400;18.566;2024-03-23T09:41:17;9.30;99.90
42365;DHT22;28498;54.400;18.566;2024-03-23T09:43:43;8.90;99.90
42365;DHT22;28498;54.400;18.566;2024-03-23T09:46:09;9.10;99.90
42365;DHT22;28498;54.400;18.566;2024-03-23T09:48:36;9.30;99.90
42365;DHT22;28498;54.400;18.566;2024-03-23T09:51:02;9.30;99.90
42365;DHT22;28498;54.400;18.566;2024-03-23T09:53:28;9.30;99.90
42365;DHT22;28498;54.400;18.566;2024-03-23T09:55:54;9.10;99.90
42365;DHT22;28498;54.400;18.566;2024-03-23T09:58:23;9.40;99.90
42365;DHT22;28498;54.400;18.566;2024-03-23T10:00:49;9.40;99.90
42365;DHT22;28498;54.400;18.566;2024-03-23T10:03:15;9.60;99.90
42365;DHT22;28498;54.400;18.566;2024-03-23T10:05:41;9.60;99.90
42365;DHT22;28498;54.400;18.566;2024-03-23T10:10:43;9.80;99.90
42365;DHT22;28498;54.400;18.566;2024-03-23T10:13:09;10.00;99.90
42365;DHT22;28498;54.400;18.566;2024-03-23T10:15:36;10.10;99.90
42365;DHT22;28498;54.400;18.566;2024-03-23T10:18:19;10.00;99.90
42365;DHT22;28498;54.400;18.566;2024-03-23T10:20:52;10.20;99.90
42365;DHT22;28498;54.400;18.566;2024-03-23T10:23:39;10.30;99.90
42365;DHT22;28498;54.400;18.566;2024-03-23T10:31:17;10.10;99.90
42365;DHT22;28498;54.400;18.566;2024-03-23T10:33:47;9.90;99.90
42365;DHT22;28498;54.400;18.566;2024-03-23T10:36:14;9.60;99.90
42365;DHT22;28498;54.400;18.566;2024-03-23T10:38:44;9.80;99.90
42365;DHT22;28498;54.400;18.566;2024-03-23T10:41:12;9.50;99.90
42365;DHT22;28498;54.400;18.566;2024-03-23T10:43:39;9.60;99.90
42365;DHT22;28498;54.400;18.566;2024-03-23T10:46:05;9.70;99.90
42365;DHT22;28498;54.400;18.566;2024-03-23T10:48:32;9.90;99.90
42365;DHT22;28498;54.400;18.566;2024-03-23T10:50:59;10.30;99.90
42365;DHT22;28498;54.400;18.566;2024-03-23T10:53:26;10.60;99.90
42365;DHT22;28498;54.400;18.566;2024-03-23T10:55:54;10.70;99.90
42365;DHT22;28498;54.400;18.566;2024-03-23T10:58:30;10.40;99.90
42365;DHT22;28498;54.400;18.566;2024-03-23T11:00:57;10.30;99.90
42365;DHT22;28498;54.400;18.566;2024-03-23T11:03:37;10.10;99.90
42365;DHT22;28498;54.400;18.566;2024-03-23T11:06:04;9.80;99.90
42365;DHT22;28498;54.400;18.566;2024-03-23T11:11:20;9.80;99.90
42365;DHT22;28498;54.400;18.566;2024-03-23T11:13:51;9.60;99.90
42365;DHT22;28498;54.400;18.566;2024-03-23T11:16:27;9.40;99.90
42365;DHT22;28498;54.400;18.566;2024-03-23T11:19:50;9.50;99.90
42365;DHT22;28498;54.400;18.566;2024-03-23T11:22:09;9.50;99.90
42365;DHT22;28498;54.400;18.566;2024-03-23T11:24:35;9.50;99.90
42365;DHT22;28498;54.400;18.566;2024-03-23T11:27:01;9.40;99.90
42365;DHT22;28498;54.400;18.566;2024-03-23T11:29:30;9.40;99.90
42365;DHT22;28498;54.400;18.566;2024-03-23T11:31:56;9.70;99.90
42365;DHT22;28498;54.400;18.566;2024-03-23T11:34:22;10.00;99.90
42365;DHT22;28498;54.400;18.566;2024-03-23T11:36:48;10.30;99.90
42365;DHT22;28498;54.400;18.566;2024-03-23T11:39:20;10.30;99.90
42365;DHT22;28498;54.400;18.566;2024-03-23T11:41:51;10.30;99.90
42365;DHT22;28498;54.400;18.566;2024-03-23T11:44:22;10.30;99.90
42365;DHT22;28498;54.400;18.566;2024-03-23T11:46:52;10.50;99.90
42365;DHT22;28498;54.400;18.566;2024-03-23T11:51:48;10.30;99.90
42365;DHT22;28498;54.400;18.566;2024-03-23T11:54:14;10.30;99.90
42365;DHT22;28498;54.400;18.566;2024-03-23T11:56:40;10.30;99.90
42365;DHT22;28498;54.400;18.566;2024-03-23T11:59:07;10.10;99.90
42365;DHT22;28498;54.400;18.566;2024-03-23T12:01:33;10.00;99.90
42365;DHT22;28498;54.400;18.566;2024-03-23T12:03:59;10.00;99.90
42365;DHT22;28498;54.400;18.566;2024-03-23T12:06:25;10.20;99.90
42365;DHT22;28498;54.400;18.566;2024-03-23T12:08:51;10.40;99.90
42365;DHT22;28498;54.400;18.566;2024-03-23T12:11:17;10.40;99.90
42365;DHT22;28498;54.400;18.566;2024-03-23T12:13:44;10.40;99.90
42365;DHT22;28498;54.400;18.566;2024-03-23T12:16:19;10.30;99.90
42365;DHT22;28498;54.400;18.566;2024-03-23T12:18:48;10.50;99.90
42365;DHT22;28498;54.400;18.566;2024-03-23T12:21:15;10.40;99.90
42365;DHT22;28498;54.400;18.566;2024-03-23T12:27:30;10.70;99.90
42365;DHT22;28498;54.400;18.566;2024-03-23T12:29:56;10.80;99.90
42365;DHT22;28498;54.400;18.566;2024-03-23T12:32:22;11.10;99.90
42365;DHT22;28498;54.400;18.566;2024-03-23T12:34:48;10.80;99.90
42365;DHT22;28498;54.400;18.566;2024-03-23T12:37:14;10.80;99.90
42365;DHT22;28498;54.400;18.566;2024-03-23T12:39:41;10.80;99.90
42365;DHT22;28498;54.400;18.566;2024-03-23T12:42:07;10.80;99.90
42365;DHT22;28498;54.400;18.566;2024-03-23T12:44:33;10.80;99.90
42365;DHT22;28498;54.400;18.566;2024-03-23T12:46:59;10.50;99.90
42365;DHT22;28498;54.400;18.566;2024-03-23T12:49:25;10.40;99.90
42365;DHT22;28498;54.400;18.566;2024-03-23T12:51:55;10.20;99.90
42365;DHT22;28498;54.400;18.566;2024-03-23T12:54:22;10.10;99.90
42365;DHT22;28498;54.400;18.566;2024-03-23T12:56:48;9.80;99.90
42365;DHT22;28498;54.400;18.566;2024-03-23T12:59:15;9.60;99.90
42365;DHT22;28498;54.400;18.566;2024-03-23T13:01:42;9.70;99.90
42365;DHT22;28498;54.400;18.566;2024-03-23T13:04:09;9.70;99.90
42365;DHT22;28498;54.400;18.566;2024-03-23T13:06:35;9.60;99.90
42365;DHT22;28498;54.400;18.566;2024-03-23T13:09:02;9.50;99.90
42365;DHT22;28498;54.400;18.566;2024-03-23T13:11:29;9.40;99.90
42365;DHT22;28498;54.400;18.566;2024-03-23T13:13:55;9.40;99.90
42365;DHT22;28498;54.400;18.566;2024-03-23T13:16:22;9.40;99.90
42365;DHT22;28498;54.400;18.566;2024-03-23T13:18:48;9.30;99.90
42365;DHT22;28498;54.400;18.566;2024-03-23T13:21:14;9.20;99.90
42365;DHT22;28498;54.400;18.566;2024-03-23T13:23:40;9.00;99.90
42365;DHT22;28498;54.400;18.566;2024-03-23T13:26:08;8.80;99.90
42365;DHT22;28498;54.400;18.566;2024-03-23T13:28:34;8.70;99.90
42365;DHT22;28498;54.400;18.566;2024-03-23T13:31:01;8.50;99.90
42365;DHT22;28498;54.400;18.566;2024-03-23T13:33:31;8.60;99.90
42365;DHT22;28498;54.400;18.566;2024-03-23T13:35:59;8.50;99.90
42365;DHT22;28498;54.400;18.566;2024-03-23T13:38:25;8.20;99.90
42365;DHT22;28498;54.400;18.566;2024-03-23T13:41:00;8.20;99.90
42365;DHT22;28498;54.400;18.566;2024-03-23T13:43:27;8.00;99.90
42365;DHT22;28498;54.400;18.566;2024-03-23T13:45:57;8.00;99.90
42365;DHT22;28498;54.400;18.566;2024-03-23T13:48:25;8.00;99.90
42365;DHT22;28498;54.400;18.566;2024-03-23T13:51:01;7.90;99.90
42365;DHT22;28498;54.400;18.566;2024-03-23T13:53:28;7.90;99.90
42365;DHT22;28498;54.400;18.566;2024-03-23T13:55:54;7.70;99.90
42365;DHT22;28498;54.400;18.566;2024-03-23T13:58:20;7.70;99.90
42365;DHT22;28498;54.400;18.566;2024-03-23T14:00:46;7.60;99.90
42365;DHT22;28498;54.400;18.566;2024-03-23T14:03:13;7.50;99.90
42365;DHT22;28498;54.400;18.566;2024-03-23T14:05:40;7.50;99.90
42365;DHT22;28498;54.400;18.566;2024-03-23T14:08:10;7.50;99.90
42365;DHT22;28498;54.400;18.566;2024-03-23T14:10:40;7.30;99.90
42365;DHT22;28498;54.400;18.566;2024-03-23T14:13:06;7.20;99.90
42365;DHT22;28498;54.400;18.566;2024-03-23T14:15:32;7.20;99.90
42365;DHT22;28498;54.400;18.566;2024-03-23T14:17:58;7.10;99.90
42365;DHT22;28498;54.400;18.566;2024-03-23T14:20:25;6.90;99.90
42365;DHT22;28498;54.400;18.566;2024-03-23T14:22:52;6.60;99.90
42365;DHT22;28498;54.400;18.566;2024-03-23T14:25:18;6.50;99.90
42365;DHT22;28498;54.400;18.566;2024-03-23T14:27:45;6.50;99.90
42365;DHT22;28498;54.400;18.566;2024-03-23T14:30:11;6.60;99.90
42365;DHT22;28498;54.400;18.566;2024-03-23T14:32:38;6.60;99.90
42365;DHT22;28498;54.400;18.566;2024-03-23T14:35:05;6.50;99.90
42365;DHT22;28498;54.400;18.566;2024-03-23T14:37:31;6.60;99.90
42365;DHT22;28498;54.400;18.566;2024-03-23T14:39:59;6.50;99.90
42365;DHT22;28498;54.400;18.566;2024-03-23T14:46:15;6.40;99.90
42365;DHT22;28498;54.400;18.566;2024-03-23T14:48:42;6.40;99.90
42365;DHT22;28498;54.400;18.566;2024-03-23T14:51:09;6.50;99.90
42365;DHT22;28498;54.400;18.566;2024-03-23T14:53:36;6.40;99.90
42365;DHT22;28498;54.400;18.566;2024-03-23T14:56:04;6.30;99.90
42365;DHT22;28498;54.400;18.566;2024-03-23T14:58:30;6.30;99.90
42365;DHT22;28498;54.400;18.566;2024-03-23T15:01:03;6.30;99.90
42365;DHT22;28498;54.400;18.566;2024-03-23T15:03:29;6.20;99.90
42365;DHT22;28498;54.400;18.566;2024-03-23T15:05:57;6.20;99.90
42365;DHT22;28498;54.400;18.566;2024-03-23T15:08:23;6.10;99.90
42365;DHT22;28498;54.400;18.566;2024-03-23T15:10:50;6.10;99.90
42365;DHT22;28498;54.400;18.566;2024-03-23T15:13:16;6.20;99.90
42365;DHT22;28498;54.400;18.566;2024-03-23T15:15:42;6.10;99.90
42365;DHT22;28498;54.400;18.566;2024-03-23T15:18:14;6.10;99.90
42365;DHT22;28498;54.400;18.566;2024-03-23T15:20:54;6.10;99.90
42365;DHT22;28498;54.400;18.566;2024-03-23T15:23:20;6.00;99.90
42365;DHT22;28498;54.400;18.566;2024-03-23T15:25:46;6.10;99.90
42365;DHT22;28498;54.400;18.566;2024-03-23T15:28:19;6.10;99.90
42365;DHT22;28498;54.400;18.566;2024-03-23T15:30:45;6.10;99.90
42365;DHT22;28498;54.400;18.566;2024-03-23T15:33:11;6.10;99.90
42365;DHT22;28498;54.400;18.566;2024-03-23T15:35:37;6.10;99.90
42365;DHT22;28498;54.400;18.566;2024-03-23T15:38:03;6.10;99.90
42365;DHT22;28498;54.400;18.566;2024-03-23T15:40:29;6.20;99.90
42365;DHT22;28498;54.400;18.566;2024-03-23T15:42:55;6.20;99.90
42365;DHT22;28498;54.400;18.566;2024-03-23T15:45:21;6.10;99.90
42365;DHT22;28498;54.400;18.566;2024-03-23T15:47:47;6.10;99.90
42365;DHT22;28498;54.400;18.566;2024-03-23T15:50:13;6.10;99.90
42365;DHT22;28498;54.400;18.566;2024-03-23T15:52:39;6.10;99.90
42365;DHT22;28498;54.400;18.566;2024-03-23T15:55:06;6.10;99.90
42365;DHT22;28498;54.400;18.566;2024-03-23T15:57:33;6.10;99.90
42365;DHT22;28498;54.400;18.566;2024-03-23T16:00:03;6.10;99.90
42365;DHT22;28498;54.400;18.566;2024-03-23T16:02:29;6.20;99.90
42365;DHT22;28498;54.400;18.566;2024-03-23T16:04:55;6.20;99.90
42365;DHT22;28498;54.400;18.566;2024-03-23T16:07:22;6.20;99.90
42365;DHT22;28498;54.400;18.566;2024-03-23T16:09:48;6.30;99.90
42365;DHT22;28498;54.400;18.566;2024-03-23T16:12:14;6.20;99.90
42365;DHT22;28498;54.400;18.566;2024-03-23T16:14:40;6.30;99.90
42365;DHT22;28498;54.400;18.566;2024-03-23T16:17:06;6.20;99.90
42365;DHT22;28498;54.400;18.566;2024-03-23T16:19:32;6.20;99.90
42365;DHT22;28498;54.400;18.566;2024-03-23T16:21:58;6.30;99.90
42365;DHT22;28498;54.400;18.566;2024-03-23T16:24:24;6.20;99.90
42365;DHT22;28498;54.400;18.566;2024-03-23T16:26:50;6.20;99.90
42365;DHT22;28498;54.400;18.566;2024-03-23T16:29:16;6.20;99.90
42365;DHT22;28498;54.400;18.566;2024-03-23T16:31:42;6.20;99.90
42365;DHT22;28498;54.400;18.566;2024-03-23T16:34:08;6.10;99.90
42365;DHT22;28498;54.400;18.566;2024-03-23T16:36:34;6.10;99.90
42365;DHT22;28498;54.400;18.566;2024-03-23T16:39:00;6.10;99.90
42365;DHT22;28498;54.400;18.566;2024-03-23T16:41:26;6.20;99.90
42365;DHT22;28498;54.400;18.566;2024-03-23T16:43:53;6.20;99.90
42365;DHT22;28498;54.400;18.566;2024-03-23T16:46:19;6.30;99.90
42365;DHT22;28498;54.400;18.566;2024-03-23T16:48:45;6.30;99.90
42365;DHT22;28498;54.400;18.566;2024-03-23T16:54:58;6.40;99.90